sensor_id;sensor_type;location;lat;lon;timestamp;pressure;altitude;pressure_sealevel;temperature;humidity
48636;BME280;34429;52.332;5.614;2022-12-20T00:01:34;101212.91;;;10.67;100.00
48636;BME280;34429;52.332;5.614;2022-12-20T00:04:04;101202.16;;;10.67;100.00
48636;BME280;34429;52.332;5.614;2022-12-20T00:06:33;101199.47;;;10.67;100.00
48636;BME280;34429;52.332;5.614;2022-12-20T00:09:06;101187.59;;;10.91;100.00
48636;BME280;34429;52.332;5.614;2022-12-20T00:11:37;101188.09;;;10.96;100.00
48636;BME280;34429;52.332;5.614;2022-12-20T00:14:06;101183.09;;;10.91;100.00
48636;BME280;34429;52.332;5.614;2022-12-20T00:16:35;101175.50;;;10.85;100.00
48636;BME280;34429;52.332;5.614;2022-12-20T00:19:05;101172.75;;;10.75;100.00
48636;BME280;34429;52.332;5.614;2022-12-20T00:21:34;101172.25;;;10.81;100.00
48636;BME280;34429;52.332;5.614;2022-12-20T00:24:06;101172.28;;;10.70;100.00
48636;BME280;34429;52.332;5.614;2022-12-20T00:26:35;101158.50;;;10.84;100.00
48636;BME280;34429;52.332;5.614;2022-12-20T00:29:04;101181.63;;;10.87;100.00
48636;BME280;34429;52.332;5.614;2022-12-20T00:31:32;101161.84;;;10.98;100.00
48636;BME280;34429;52.332;5.614;2022-12-20T00:34:01;101167.44;;;10.85;100.00
48636;BME280;34429;52.332;5.614;2022-12-20T00:36:30;101165.78;;;10.94;100.00
48636;BME280;34429;52.332;5.614;2022-12-20T00:38:59;101165.09;;;10.92;100.00
48636;BME280;34429;52.332;5.614;2022-12-20T00:41:32;101167.84;;;11.01;100.00
48636;BME280;34429;52.332;5.614;2022-12-20T00:44:01;101164.41;;;10.99;100.00
48636;BME280;34429;52.332;5.614;2022-12-20T00:46:30;101155.09;;;11.03;100.00
48636;BME280;34429;52.332;5.614;2022-12-20T00:48:59;101158.50;;;11.05;100.00
48636;BME280;34429;52.332;5.614;2022-12-20T00:51:29;101164.03;;;11.25;100.00
48636;BME280;34429;52.332;5.614;2022-12-20T00:53:57;101158.56;;;11.15;100.00
48636;BME280;34429;52.332;5.614;2022-12-20T00:56:26;101160.59;;;11.23;100.00
48636;BME280;34429;52.332;5.614;2022-12-20T00:58:57;101160.72;;;11.21;100.00
48636;BME280;34429;52.332;5.614;2022-12-20T01:01:28;101146.09;;;11.14;100.00
48636;BME280;34429;52.332;5.614;2022-12-20T01:03:58;101142.41;;;11.15;100.00
48636;BME280;34429;52.332;5.614;2022-12-20T01:06:27;101159.47;;;11.26;100.00
48636;BME280;34429;52.332;5.614;2022-12-20T01:08:56;101177.09;;;11.30;100.00
48636;BME280;34429;52.332;5.614;2022-12-20T01:11:26;101165.50;;;11.39;100.00
48636;BME280;34429;52.332;5.614;2022-12-20T01:14:15;101166.69;;;11.46;100.00
48636;BME280;34429;52.332;5.614;2022-12-20T01:16:45;101157.44;;;11.39;100.00
48636;BME280;34429;52.332;5.614;2022-12-20T01:19:15;101165.97;;;11.44;100.00
48636;BME280;34429;52.332;5.614;2022-12-20T01:21:43;101153.75;;;11.40;100.00
48636;BME280;34429;52.332;5.614;2022-12-20T01:24:13;101171.22;;;11.46;100.00
48636;BME280;34429;52.332;5.614;2022-12-20T01:26:42;101164.97;;;11.45;100.00
48636;BME280;34429;52.332;5.614;2022-12-20T01:29:10;101165.22;;;11.32;100.00
48636;BME280;34429;52.332;5.614;2022-12-20T01:31:41;101162.50;;;11.32;100.00
48636;BME280;34429;52.332;5.614;2022-12-20T01:34:10;101167.22;;;11.40;100.00
48636;BME280;34429;52.332;5.614;2022-12-20T01:36:39;101159.75;;;11.22;100.00
48636;BME280;34429;52.332;5.614;2022-12-20T01:39:11;101151.81;;;11.21;100.00
48636;BME280;34429;52.332;5.614;2022-12-20T01:41:41;101152.84;;;11.30;100.00
48636;BME280;34429;52.332;5.614;2022-12-20T01:47:11;101144.66;;;11.10;100.00
48636;BME280;34429;52.332;5.614;2022-12-20T01:49:42;101147.59;;;10.86;100.00
48636;BME280;34429;52.332;5.614;2022-12-20T01:52:13;101153.34;;;10.93;100.00
48636;BME280;34429;52.332;5.614;2022-12-20T01:54:46;101162.91;;;10.85;100.00
48636;BME280;34429;52.332;5.614;2022-12-20T01:57:18;101153.78;;;10.77;100.00
48636;BME280;34429;52.332;5.614;2022-12-20T01:59:49;101159.81;;;10.69;100.00
48636;BME280;34429;52.332;5.614;2022-12-20T02:02:22;101145.88;;;10.64;100.00
48636;BME280;34429;52.332;5.614;2022-12-20T02:04:50;101163.50;;;10.68;100.00
48636;BME280;34429;52.332;5.614;2022-12-20T02:07:22;101151.75;;;10.69;100.00
48636;BME280;34429;52.332;5.614;2022-12-20T02:09:53;101141.41;;;10.53;100.00
48636;BME280;34429;52.332;5.614;2022-12-20T02:12:24;101133.22;;;10.55;100.00
48636;BME280;34429;52.332;5.614;2022-12-20T02:15:03;101130.03;;;10.49;100.00
48636;BME280;34429;52.332;5.614;2022-12-20T02:17:44;101135.69;;;10.46;100.00
48636;BME280;34429;52.332;5.614;2022-12-20T02:26:21;101126.91;;;10.44;100.00
48636;BME280;34429;52.332;5.614;2022-12-20T02:29:11;101130.03;;;10.49;100.00
48636;BME280;34429;52.332;5.614;2022-12-20T02:31:54;101126.28;;;10.41;100.00
48636;BME280;34429;52.332;5.614;2022-12-20T02:34:27;101112.69;;;10.42;100.00
48636;BME280;34429;52.332;5.614;2022-12-20T02:36:57;101099.13;;;10.44;100.00
48636;BME280;34429;52.332;5.614;2022-12-20T02:39:26;101096.56;;;10.42;100.00
48636;BME280;34429;52.332;5.614;2022-12-20T02:41:59;101102.66;;;10.44;100.00
48636;BME280;34429;52.332;5.614;2022-12-20T02:44:31;101101.84;;;10.44;100.00
48636;BME280;34429;52.332;5.614;2022-12-20T02:47:19;101109.28;;;10.29;100.00
48636;BME280;34429;52.332;5.614;2022-12-20T02:49:50;101103.91;;;10.29;100.00
48636;BME280;34429;52.332;5.614;2022-12-20T02:52:20;101106.47;;;10.42;100.00
48636;BME280;34429;52.332;5.614;2022-12-20T02:54:51;101093.66;;;10.34;100.00
48636;BME280;34429;52.332;5.614;2022-12-20T02:57:25;101103.19;;;10.38;100.00
48636;BME280;34429;52.332;5.614;2022-12-20T02:59:59;101098.28;;;10.32;100.00
48636;BME280;34429;52.332;5.614;2022-12-20T03:02:32;101098.41;;;10.42;100.00
48636;BME280;34429;52.332;5.614;2022-12-20T03:05:23;101104.38;;;10.45;100.00
48636;BME280;34429;52.332;5.614;2022-12-20T03:07:53;101103.66;;;10.43;100.00
48636;BME280;34429;52.332;5.614;2022-12-20T03:10:22;101090.69;;;10.48;100.00
48636;BME280;34429;52.332;5.614;2022-12-20T03:12:50;101086.53;;;10.44;100.00
48636;BME280;34429;52.332;5.614;2022-12-20T03:15:19;101088.75;;;10.39;100.00
48636;BME280;34429;52.332;5.614;2022-12-20T03:17:49;101091.91;;;10.44;100.00
48636;BME280;34429;52.332;5.614;2022-12-20T03:20:18;101086.41;;;10.46;100.00
48636;BME280;34429;52.332;5.614;2022-12-20T03:22:46;101086.72;;;10.52;100.00
48636;BME280;34429;52.332;5.614;2022-12-20T03:25:16;101082.38;;;10.40;100.00
48636;BME280;34429;52.332;5.614;2022-12-20T03:27:44;101081.00;;;10.46;100.00
48636;BME280;34429;52.332;5.614;2022-12-20T03:30:13;101090.72;;;10.58;100.00
48636;BME280;34429;52.332;5.614;2022-12-20T03:32:42;101101.84;;;10.65;100.00
48636;BME280;34429;52.332;5.614;2022-12-20T03:35:13;101089.66;;;10.49;100.00
48636;BME280;34429;52.332;5.614;2022-12-20T03:37:42;101081.75;;;10.69;100.00
48636;BME280;34429;52.332;5.614;2022-12-20T03:40:11;101096.59;;;10.63;100.00
48636;BME280;34429;52.332;5.614;2022-12-20T03:42:40;101075.97;;;10.74;100.00
48636;BME280;34429;52.332;5.614;2022-12-20T03:45:09;101083.31;;;10.72;100.00
48636;BME280;34429;52.332;5.614;2022-12-20T03:47:38;101085.94;;;10.62;100.00
48636;BME280;34429;52.332;5.614;2022-12-20T03:50:07;101086.00;;;10.72;100.00
48636;BME280;34429;52.332;5.614;2022-12-20T03:52:39;101079.25;;;10.77;100.00
48636;BME280;34429;52.332;5.614;2022-12-20T03:55:07;101070.44;;;10.75;100.00
48636;BME280;34429;52.332;5.614;2022-12-20T03:57:36;101063.09;;;10.77;100.00
48636;BME280;34429;52.332;5.614;2022-12-20T04:00:07;101063.47;;;10.94;100.00
48636;BME280;34429;52.332;5.614;2022-12-20T04:02:36;101067.94;;;10.83;100.00
48636;BME280;34429;52.332;5.614;2022-12-20T04:05:06;101058.59;;;10.87;100.00
48636;BME280;34429;52.332;5.614;2022-12-20T04:07:34;101065.16;;;10.95;100.00
48636;BME280;34429;52.332;5.614;2022-12-20T04:10:07;101055.25;;;10.95;100.00
48636;BME280;34429;52.332;5.614;2022-12-20T04:12:35;101060.53;;;10.97;100.00
48636;BME280;34429;52.332;5.614;2022-12-20T04:15:05;101046.16;;;10.86;100.00
48636;BME280;34429;52.332;5.614;2022-12-20T04:17:33;101040.25;;;11.02;100.00
48636;BME280;34429;52.332;5.614;2022-12-20T04:20:02;101043.22;;;10.99;100.00
48636;BME280;34429;52.332;5.614;2022-12-20T04:22:43;101051.41;;;11.19;100.00
48636;BME280;34429;52.332;5.614;2022-12-20T04:25:15;101041.53;;;11.29;100.00
48636;BME280;34429;52.332;5.614;2022-12-20T04:27:44;101040.31;;;11.12;100.00
48636;BME280;34429;52.332;5.614;2022-12-20T04:30:13;101030.34;;;11.03;100.00
48636;BME280;34429;52.332;5.614;2022-12-20T04:32:42;101022.81;;;10.97;100.00
48636;BME280;34429;52.332;5.614;2022-12-20T04:35:10;101036.91;;;11.10;100.00
48636;BME280;34429;52.332;5.614;2022-12-20T04:37:39;101027.03;;;11.20;100.00
48636;BME280;34429;52.332;5.614;2022-12-20T04:40:08;101034.28;;;11.30;100.00
48636;BME280;34429;52.332;5.614;2022-12-20T04:42:40;101028.00;;;11.19;100.00
48636;BME280;34429;52.332;5.614;2022-12-20T04:45:09;101032.41;;;11.20;100.00
48636;BME280;34429;52.332;5.614;2022-12-20T04:47:37;101035.59;;;11.35;100.00
48636;BME280;34429;52.332;5.614;2022-12-20T04:50:07;101028.75;;;11.31;100.00
48636;BME280;34429;52.332;5.614;2022-12-20T04:52:35;101037.25;;;11.36;100.00
48636;BME280;34429;52.332;5.614;2022-12-20T04:55:16;101038.41;;;11.34;100.00
48636;BME280;34429;52.332;5.614;2022-12-20T04:57:47;101034.72;;;11.35;100.00
48636;BME280;34429;52.332;5.614;2022-12-20T05:00:16;101031.63;;;11.49;100.00
48636;BME280;34429;52.332;5.614;2022-12-20T05:02:44;101021.41;;;11.43;100.00
48636;BME280;34429;52.332;5.614;2022-12-20T05:05:13;101023.16;;;11.64;100.00
48636;BME280;34429;52.332;5.614;2022-12-20T05:07:41;101017.19;;;11.50;100.00
48636;BME280;34429;52.332;5.614;2022-12-20T05:10:10;101018.34;;;11.57;100.00
48636;BME280;34429;52.332;5.614;2022-12-20T05:12:38;101018.06;;;11.61;100.00
48636;BME280;34429;52.332;5.614;2022-12-20T05:15:10;101016.63;;;11.56;100.00
48636;BME280;34429;52.332;5.614;2022-12-20T05:17:38;101011.50;;;11.53;100.00
48636;BME280;34429;52.332;5.614;2022-12-20T05:20:08;101024.09;;;11.43;100.00
48636;BME280;34429;52.332;5.614;2022-12-20T05:22:36;101023.28;;;11.52;100.00
48636;BME280;34429;52.332;5.614;2022-12-20T05:25:17;101016.03;;;11.43;100.00
48636;BME280;34429;52.332;5.614;2022-12-20T05:27:58;101020.84;;;11.39;100.00
48636;BME280;34429;52.332;5.614;2022-12-20T05:30:29;101013.72;;;11.29;100.00
48636;BME280;34429;52.332;5.614;2022-12-20T05:32:57;101012.59;;;11.31;100.00
48636;BME280;34429;52.332;5.614;2022-12-20T05:35:26;101009.16;;;11.19;100.00
48636;BME280;34429;52.332;5.614;2022-12-20T05:37:54;101010.31;;;11.27;100.00
48636;BME280;34429;52.332;5.614;2022-12-20T05:40:22;101015.50;;;11.18;100.00
48636;BME280;34429;52.332;5.614;2022-12-20T05:42:51;101022.19;;;11.24;100.00
48636;BME280;34429;52.332;5.614;2022-12-20T05:45:20;101011.75;;;11.31;100.00
48636;BME280;34429;52.332;5.614;2022-12-20T05:47:51;101005.75;;;11.17;100.00
48636;BME280;34429;52.332;5.614;2022-12-20T05:50:19;101006.59;;;11.18;100.00
48636;BME280;34429;52.332;5.614;2022-12-20T05:52:48;100993.50;;;11.03;100.00
48636;BME280;34429;52.332;5.614;2022-12-20T05:55:16;100992.38;;;11.06;100.00
48636;BME280;34429;52.332;5.614;2022-12-20T05:57:45;100986.44;;;11.12;100.00
48636;BME280;34429;52.332;5.614;2022-12-20T06:00:14;100970.00;;;11.15;100.00
48636;BME280;34429;52.332;5.614;2022-12-20T06:02:42;100968.03;;;11.17;100.00
48636;BME280;34429;52.332;5.614;2022-12-20T06:05:16;100966.75;;;11.12;100.00
48636;BME280;34429;52.332;5.614;2022-12-20T06:07:45;100966.59;;;11.13;100.00
48636;BME280;34429;52.332;5.614;2022-12-20T06:10:13;100966.31;;;11.16;100.00
48636;BME280;34429;52.332;5.614;2022-12-20T06:12:42;100964.06;;;11.21;100.00
48636;BME280;34429;52.332;5.614;2022-12-20T06:15:10;100964.06;;;11.21;100.00
48636;BME280;34429;52.332;5.614;2022-12-20T06:17:40;100953.31;;;11.31;100.00
48636;BME280;34429;52.332;5.614;2022-12-20T06:20:09;100951.72;;;11.29;100.00
48636;BME280;34429;52.332;5.614;2022-12-20T06:22:41;100946.38;;;11.38;100.00
48636;BME280;34429;52.332;5.614;2022-12-20T06:25:10;100951.31;;;11.33;100.00
48636;BME280;34429;52.332;5.614;2022-12-20T06:27:39;100940.81;;;11.30;100.00
48636;BME280;34429;52.332;5.614;2022-12-20T06:30:09;100947.31;;;11.28;100.00
48636;BME280;34429;52.332;5.614;2022-12-20T06:32:38;100955.41;;;11.28;100.00
48636;BME280;34429;52.332;5.614;2022-12-20T06:35:07;100962.41;;;11.40;100.00
48636;BME280;34429;52.332;5.614;2022-12-20T06:37:36;100984.00;;;11.50;100.00
48636;BME280;34429;52.332;5.614;2022-12-20T06:40:09;100992.19;;;11.48;100.00
48636;BME280;34429;52.332;5.614;2022-12-20T06:42:38;100975.59;;;11.43;100.00
48636;BME280;34429;52.332;5.614;2022-12-20T06:45:08;100974.28;;;11.28;100.00
48636;BME280;34429;52.332;5.614;2022-12-20T06:47:36;100973.31;;;11.48;100.00
48636;BME280;34429;52.332;5.614;2022-12-20T06:50:09;100963.56;;;11.67;100.00
48636;BME280;34429;52.332;5.614;2022-12-20T06:52:37;100958.75;;;11.70;100.00
48636;BME280;34429;52.332;5.614;2022-12-20T06:55:08;100957.19;;;11.68;100.00
48636;BME280;34429;52.332;5.614;2022-12-20T06:57:37;100953.06;;;11.64;100.00
48636;BME280;34429;52.332;5.614;2022-12-20T07:00:07;100956.91;;;11.81;100.00
48636;BME280;34429;52.332;5.614;2022-12-20T07:02:37;100945.97;;;11.72;100.00
48636;BME280;34429;52.332;5.614;2022-12-20T07:05:06;100944.84;;;11.65;100.00
48636;BME280;34429;52.332;5.614;2022-12-20T07:07:35;100942.13;;;11.55;100.00
48636;BME280;34429;52.332;5.614;2022-12-20T07:10:05;100956.75;;;11.63;100.00
48636;BME280;34429;52.332;5.614;2022-12-20T07:12:37;100949.81;;;11.70;100.00
48636;BME280;34429;52.332;5.614;2022-12-20T07:15:07;100947.09;;;11.70;100.00
48636;BME280;34429;52.332;5.614;2022-12-20T07:17:35;100945.13;;;11.72;100.00
48636;BME280;34429;52.332;5.614;2022-12-20T07:20:06;100947.25;;;11.78;100.00
48636;BME280;34429;52.332;5.614;2022-12-20T07:22:34;100946.25;;;11.79;100.00
48636;BME280;34429;52.332;5.614;2022-12-20T07:25:04;100944.72;;;11.77;100.00
48636;BME280;34429;52.332;5.614;2022-12-20T07:27:32;100950.94;;;11.57;100.00
48636;BME280;34429;52.332;5.614;2022-12-20T07:30:04;100960.72;;;11.68;100.00
48636;BME280;34429;52.332;5.614;2022-12-20T07:32:33;100952.38;;;11.81;100.00
48636;BME280;34429;52.332;5.614;2022-12-20T07:35:01;100940.16;;;11.87;100.00
48636;BME280;34429;52.332;5.614;2022-12-20T07:37:30;100950.25;;;11.95;100.00
48636;BME280;34429;52.332;5.614;2022-12-20T07:39:58;100960.22;;;11.94;100.00
48636;BME280;34429;52.332;5.614;2022-12-20T07:42:27;100945.72;;;12.05;100.00
48636;BME280;34429;52.332;5.614;2022-12-20T07:44:55;100962.47;;;11.99;100.00
48636;BME280;34429;52.332;5.614;2022-12-20T07:47:27;100941.44;;;11.92;100.00
48636;BME280;34429;52.332;5.614;2022-12-20T07:49:56;100942.56;;;11.80;100.00
48636;BME280;34429;52.332;5.614;2022-12-20T07:52:26;100949.94;;;11.88;100.00
48636;BME280;34429;52.332;5.614;2022-12-20T07:55:00;100941.59;;;11.81;100.00
48636;BME280;34429;52.332;5.614;2022-12-20T07:57:33;100947.38;;;11.86;100.00
48636;BME280;34429;52.332;5.614;2022-12-20T08:00:04;100964.75;;;11.94;100.00
48636;BME280;34429;52.332;5.614;2022-12-20T08:02:38;100955.38;;;11.98;100.00
48636;BME280;34429;52.332;5.614;2022-12-20T08:05:08;100951.38;;;11.92;100.00
48636;BME280;34429;52.332;5.614;2022-12-20T08:07:37;100963.59;;;11.96;100.00
48636;BME280;34429;52.332;5.614;2022-12-20T08:10:08;100962.75;;;11.96;100.00
48636;BME280;34429;52.332;5.614;2022-12-20T08:12:39;100971.53;;;11.78;100.00
48636;BME280;34429;52.332;5.614;2022-12-20T08:15:08;100966.97;;;11.69;100.00
48636;BME280;34429;52.332;5.614;2022-12-20T08:17:39;100966.13;;;11.68;100.00
48636;BME280;34429;52.332;5.614;2022-12-20T08:20:09;100965.25;;;11.58;100.00
48636;BME280;34429;52.332;5.614;2022-12-20T08:22:37;100966.38;;;11.55;100.00
48636;BME280;34429;52.332;5.614;2022-12-20T08:25:07;100963.09;;;11.42;100.00
48636;BME280;34429;52.332;5.614;2022-12-20T08:27:36;100962.41;;;11.40;100.00
48636;BME280;34429;52.332;5.614;2022-12-20T08:30:10;100952.47;;;11.31;100.00
48636;BME280;34429;52.332;5.614;2022-12-20T08:32:42;100962.50;;;11.29;100.00
48636;BME280;34429;52.332;5.614;2022-12-20T08:35:10;100971.00;;;11.24;100.00
48636;BME280;34429;52.332;5.614;2022-12-20T08:37:39;100954.72;;;11.26;100.00
48636;BME280;34429;52.332;5.614;2022-12-20T08:40:09;100971.00;;;11.24;100.00
48636;BME280;34429;52.332;5.614;2022-12-20T08:42:37;100956.84;;;11.22;100.00
48636;BME280;34429;52.332;5.614;2022-12-20T08:45:06;100963.66;;;11.36;100.00
48636;BME280;34429;52.332;5.614;2022-12-20T08:47:35;100963.53;;;11.37;100.00
48636;BME280;34429;52.332;5.614;2022-12-20T08:50:07;100964.09;;;11.31;100.00
48636;BME280;34429;52.332;5.614;2022-12-20T08:52:36;100962.38;;;11.30;100.00
48636;BME280;34429;52.332;5.614;2022-12-20T08:55:05;100964.06;;;11.21;100.00
48636;BME280;34429;52.332;5.614;2022-12-20T08:57:33;100955.56;;;11.26;100.00
48636;BME280;34429;52.332;5.614;2022-12-20T09:00:03;100966.75;;;11.21;100.00
48636;BME280;34429;52.332;5.614;2022-12-20T09:02:31;100953.72;;;11.27;100.00
48636;BME280;34429;52.332;5.614;2022-12-20T09:05:00;100963.50;;;11.28;100.00
48636;BME280;34429;52.332;5.614;2022-12-20T09:07:31;100950.72;;;11.20;100.00
48636;BME280;34429;52.332;5.614;2022-12-20T09:10:00;100957.78;;;11.11;100.00
48636;BME280;34429;52.332;5.614;2022-12-20T09:12:28;100948.75;;;11.32;100.00
48636;BME280;34429;52.332;5.614;2022-12-20T09:14:57;100956.41;;;11.27;100.00
48636;BME280;34429;52.332;5.614;2022-12-20T09:17:25;100953.41;;;11.10;100.00
48636;BME280;34429;52.332;5.614;2022-12-20T09:19:54;100961.91;;;11.15;100.00
48636;BME280;34429;52.332;5.614;2022-12-20T09:22:23;100963.44;;;11.08;100.00
48636;BME280;34429;52.332;5.614;2022-12-20T09:24:54;100968.03;;;11.17;100.00
48636;BME280;34429;52.332;5.614;2022-12-20T09:27:22;100971.84;;;11.25;100.00
48636;BME280;34429;52.332;5.614;2022-12-20T09:29:51;100963.63;;;11.26;100.00
48636;BME280;34429;52.332;5.614;2022-12-20T09:32:19;100967.16;;;11.07;100.00
48636;BME280;34429;52.332;5.614;2022-12-20T09:34:48;100972.53;;;11.07;100.00
48636;BME280;34429;52.332;5.614;2022-12-20T09:37:16;100972.34;;;10.99;100.00
48636;BME280;34429;52.332;5.614;2022-12-20T09:39:47;100975.94;;;11.09;100.00
48636;BME280;34429;52.332;5.614;2022-12-20T09:42:21;100963.16;;;11.11;100.00
48636;BME280;34429;52.332;5.614;2022-12-20T09:44:56;100962.00;;;11.04;100.00
48636;BME280;34429;52.332;5.614;2022-12-20T09:47:28;100963.59;;;11.07;100.00
48636;BME280;34429;52.332;5.614;2022-12-20T09:49:56;100956.94;;;11.11;100.00
48636;BME280;34429;52.332;5.614;2022-12-20T09:52:35;100963.63;;;11.16;100.00
48636;BME280;34429;52.332;5.614;2022-12-20T09:55:16;100960.13;;;10.95;100.00
48636;BME280;34429;52.332;5.614;2022-12-20T09:58:01;100965.16;;;11.09;100.00
48636;BME280;34429;52.332;5.614;2022-12-20T10:00:35;100958.75;;;11.00;100.00
48636;BME280;34429;52.332;5.614;2022-12-20T10:03:03;100966.56;;;11.03;100.00
48636;BME280;34429;52.332;5.614;2022-12-20T10:05:37;100968.78;;;10.89;100.00
48636;BME280;34429;52.332;5.614;2022-12-20T10:08:15;100969.66;;;10.99;100.00
48636;BME280;34429;52.332;5.614;2022-12-20T10:10:53;100977.47;;;11.02;100.00
48636;BME280;34429;52.332;5.614;2022-12-20T10:13:34;100974.91;;;11.00;100.00
48636;BME280;34429;52.332;5.614;2022-12-20T10:16:16;100965.72;;;11.03;100.00
48636;BME280;34429;52.332;5.614;2022-12-20T10:18:56;100966.88;;;11.10;100.00
48636;BME280;34429;52.332;5.614;2022-12-20T10:21:31;100962.41;;;10.90;100.00
48636;BME280;34429;52.332;5.614;2022-12-20T10:24:09;100963.81;;;10.94;100.00
48636;BME280;34429;52.332;5.614;2022-12-20T10:26:39;100960.28;;;10.93;100.00
48636;BME280;34429;52.332;5.614;2022-12-20T10:29:11;100971.88;;;10.84;100.00
48636;BME280;34429;52.332;5.614;2022-12-20T10:31:40;100960.13;;;10.95;100.00
48636;BME280;34429;52.332;5.614;2022-12-20T10:34:09;100962.56;;;10.98;100.00
48636;BME280;34429;52.332;5.614;2022-12-20T10:36:37;100962.00;;;11.04;100.00
48636;BME280;34429;52.332;5.614;2022-12-20T10:39:08;100953.78;;;11.05;100.00
48636;BME280;34429;52.332;5.614;2022-12-20T10:41:47;100958.34;;;11.05;100.00
48636;BME280;34429;52.332;5.614;2022-12-20T10:44:25;100951.50;;;11.01;100.00
48636;BME280;34429;52.332;5.614;2022-12-20T10:46:55;100942.91;;;11.07;100.00
48636;BME280;34429;52.332;5.614;2022-12-20T10:49:29;100948.03;;;11.10;100.00
48636;BME280;34429;52.332;5.614;2022-12-20T10:52:00;100942.19;;;11.05;100.00
48636;BME280;34429;52.332;5.614;2022-12-20T10:54:36;100933.13;;;11.06;100.00
48636;BME280;34429;52.332;5.614;2022-12-20T10:57:17;100933.66;;;11.00;100.00
48636;BME280;34429;52.332;5.614;2022-12-20T10:59:52;100934.81;;;11.07;100.00
48636;BME280;34429;52.332;5.614;2022-12-20T11:02:27;100919.75;;;10.95;100.00
48636;BME280;34429;52.332;5.614;2022-12-20T11:04:58;100920.81;;;11.13;100.00
48636;BME280;34429;52.332;5.614;2022-12-20T11:07:30;100928.16;;;11.11;100.00
48636;BME280;34429;52.332;5.614;2022-12-20T11:10:02;100920.94;;;11.12;100.00
48636;BME280;34429;52.332;5.614;2022-12-20T11:12:31;100914.41;;;11.04;100.00
48636;BME280;34429;52.332;5.614;2022-12-20T11:15:21;100922.25;;;11.17;100.00
48636;BME280;34429;52.332;5.614;2022-12-20T11:17:55;100919.09;;;11.12;100.00
48636;BME280;34429;52.332;5.614;2022-12-20T11:20:31;100916.09;;;11.05;100.00
48636;BME280;34429;52.332;5.614;2022-12-20T11:23:14;100908.19;;;11.24;100.00
48636;BME280;34429;52.332;5.614;2022-12-20T11:25:59;100913.31;;;11.27;100.00
48636;BME280;34429;52.332;5.614;2022-12-20T11:28:52;100910.06;;;11.33;100.00
48636;BME280;34429;52.332;5.614;2022-12-20T11:31:37;100913.28;;;11.17;100.00
48636;BME280;34429;52.332;5.614;2022-12-20T11:34:20;100916.69;;;11.09;100.00
48636;BME280;34429;52.332;5.614;2022-12-20T11:37:16;100916.56;;;11.20;100.00
48636;BME280;34429;52.332;5.614;2022-12-20T11:40:03;100920.06;;;11.11;100.00
48636;BME280;34429;52.332;5.614;2022-12-20T11:42:45;100919.22;;;11.11;100.00
48636;BME280;34429;52.332;5.614;2022-12-20T11:45:22;100910.44;;;11.18;100.00
48636;BME280;34429;52.332;5.614;2022-12-20T11:48:03;100909.28;;;11.11;100.00
48636;BME280;34429;52.332;5.614;2022-12-20T11:50:57;100903.38;;;11.17;100.00
48636;BME280;34429;52.332;5.614;2022-12-20T11:53:33;100908.50;;;11.20;100.00
48636;BME280;34429;52.332;5.614;2022-12-20T11:56:07;100923.78;;;11.20;100.00
48636;BME280;34429;52.332;5.614;2022-12-20T11:58:47;100894.28;;;11.18;100.00
48636;BME280;34429;52.332;5.614;2022-12-20T12:01:22;100905.38;;;11.35;100.00
48636;BME280;34429;52.332;5.614;2022-12-20T12:04:01;100898.00;;;11.37;100.00
48636;BME280;34429;52.332;5.614;2022-12-20T12:06:34;100894.06;;;11.41;100.00
48636;BME280;34429;52.332;5.614;2022-12-20T12:09:11;100894.88;;;11.32;100.00
48636;BME280;34429;52.332;5.614;2022-12-20T12:11:44;100895.59;;;11.34;100.00
48636;BME280;34429;52.332;5.614;2022-12-20T12:14:20;100897.44;;;11.24;100.00
48636;BME280;34429;52.332;5.614;2022-12-20T12:16:52;100904.22;;;11.28;100.00
48636;BME280;34429;52.332;5.614;2022-12-20T12:19:28;100901.13;;;11.32;100.00
48636;BME280;34429;52.332;5.614;2022-12-20T12:22:03;100892.91;;;11.34;100.00
48636;BME280;34429;52.332;5.614;2022-12-20T12:24:35;100894.75;;;11.43;100.00
48636;BME280;34429;52.332;5.614;2022-12-20T12:27:12;100904.81;;;11.51;100.00
48636;BME280;34429;52.332;5.614;2022-12-20T12:29:42;100892.59;;;11.47;100.00
48636;BME280;34429;52.332;5.614;2022-12-20T12:32:16;100891.34;;;11.51;100.00
48636;BME280;34429;52.332;5.614;2022-12-20T12:35:10;100892.34;;;11.60;100.00
48636;BME280;34429;52.332;5.614;2022-12-20T12:38:03;100894.63;;;11.54;100.00
48636;BME280;34429;52.332;5.614;2022-12-20T12:43:49;100898.31;;;11.53;100.00
48636;BME280;34429;52.332;5.614;2022-12-20T12:46:22;100896.16;;;11.57;100.00
48636;BME280;34429;52.332;5.614;2022-12-20T12:48:57;100903.41;;;11.56;100.00
48636;BME280;34429;52.332;5.614;2022-12-20T12:51:32;100903.13;;;11.50;100.00
48636;BME280;34429;52.332;5.614;2022-12-20T12:54:14;100894.88;;;11.32;100.00
48636;BME280;34429;52.332;5.614;2022-12-20T12:56:45;100899.69;;;11.38;100.00
48636;BME280;34429;52.332;5.614;2022-12-20T12:59:40;100900.16;;;11.53;100.00
48636;BME280;34429;52.332;5.614;2022-12-20T13:02:26;100901.69;;;11.55;100.00
48636;BME280;34429;52.332;5.614;2022-12-20T13:05:29;100897.16;;;11.46;100.00
48636;BME280;34429;52.332;5.614;2022-12-20T13:08:02;100895.75;;;11.62;100.00
48636;BME280;34429;52.332;5.614;2022-12-20T13:13:35;100889.78;;;11.48;100.00
48636;BME280;34429;52.332;5.614;2022-12-20T13:16:12;100889.78;;;11.38;100.00
48636;BME280;34429;52.332;5.614;2022-12-20T13:19:11;100892.91;;;11.53;100.00
48636;BME280;34429;52.332;5.614;2022-12-20T13:21:42;100890.34;;;11.52;100.00